createdAt,value
2019-04-23T00:00:01.346Z,14.30
2019-04-23T00:02:25.134Z,14.30
2019-04-23T00:04:53.041Z,14.40
2019-04-23T00:07:39.668Z,14.30
2019-04-23T00:10:01.171Z,14.30
2019-04-23T00:12:40.501Z,14.20
2019-04-23T00:15:04.586Z,14.20
2019-04-23T00:17:32.081Z,14.20
2019-04-23T00:20:03.721Z,14.20
2019-04-23T00:22:54.741Z,14.10
2019-04-23T00:25:41.679Z,14.10
2019-04-23T00:27:55.216Z,14.20
2019-04-23T00:30:20.268Z,14.30
2019-04-23T00:32:47.993Z,14.20
2019-04-23T00:35:23.586Z,14.20
2019-04-23T00:37:47.383Z,14.20
2019-04-23T00:40:19.081Z,14.10
2019-04-23T00:42:48.160Z,14.10
2019-04-23T00:45:30.626Z,14.00
2019-04-23T00:47:49.892Z,13.90
2019-04-23T00:52:50.190Z,14.10
2019-04-23T00:55:26.481Z,14.10
2019-04-23T00:57:59.878Z,14.10
2019-04-23T01:00:32.142Z,14.10
2019-04-23T01:02:55.849Z,14.20
2019-04-23T01:05:27.645Z,14.10
2019-04-23T01:07:55.947Z,14.10
2019-04-23T01:10:27.407Z,14.00
2019-04-23T01:12:59.389Z,14.00
2019-04-23T01:15:35.049Z,13.90
2019-04-23T01:18:10.908Z,14.00
2019-04-23T01:20:50.267Z,14.00
2019-04-23T01:22:57.110Z,14.00
2019-04-23T01:25:49.563Z,14.00
2019-04-23T01:28:36.733Z,14.10
2019-04-23T01:31:10.617Z,14.10
2019-04-23T01:33:37.951Z,14.10
2019-04-23T01:36:16.224Z,14.00
2019-04-23T01:38:41.712Z,14.00
2019-04-23T01:41:07.739Z,13.90
2019-04-23T01:46:07.545Z,13.80
2019-04-23T01:48:42.054Z,14.00
2019-04-23T01:51:01.374Z,13.80
2019-04-23T01:53:40.595Z,13.80
2019-04-23T01:56:06.223Z,13.90
2019-04-23T02:01:29.599Z,13.80
2019-04-23T02:03:43.701Z,13.80
2019-04-23T02:08:40.141Z,13.80
2019-04-23T02:11:09.721Z,13.70
2019-04-23T02:13:44.015Z,13.50
2019-04-23T02:16:11.795Z,13.70
2019-04-23T02:18:45.505Z,13.70
2019-04-23T02:23:57.140Z,13.70
2019-04-23T02:26:20.100Z,13.70
2019-04-23T02:31:44.593Z,13.60
2019-04-23T02:34:00.916Z,13.60
2019-04-23T02:36:32.506Z,13.60
2019-04-23T02:41:27.168Z,13.60
2019-04-23T02:43:59.343Z,13.40
2019-04-23T02:51:30.877Z,13.30
2019-04-23T02:54:04.600Z,13.20
2019-04-23T02:59:06.177Z,13.30
2019-04-23T03:06:29.538Z,13.40
2019-04-23T03:09:15.205Z,13.30
2019-04-23T03:16:38.499Z,13.30
2019-04-23T03:19:04.285Z,13.40
2019-04-23T03:21:42.628Z,13.20
2019-04-23T03:26:56.516Z,13.00
2019-04-23T03:29:25.730Z,12.90
2019-04-23T03:39:03.086Z,12.90
2019-04-23T03:41:50.374Z,12.80
2019-04-23T03:44:20.608Z,12.80
2019-04-23T03:46:41.659Z,12.80
2019-04-23T03:49:15.123Z,12.70
2019-04-23T03:51:51.837Z,12.60
2019-04-23T03:54:30.538Z,12.60
2019-04-23T03:59:32.328Z,12.70
2019-04-23T04:07:05.588Z,12.70
2019-04-23T04:09:26.084Z,12.70
2019-04-23T04:11:50.311Z,12.60
2019-04-23T04:14:34.298Z,12.60
2019-04-23T04:16:51.703Z,12.60
2019-04-23T04:19:32.069Z,12.60
2019-04-23T04:21:58.456Z,12.60
2019-04-23T04:24:27.362Z,12.50
2019-04-23T04:27:00.158Z,12.60
2019-04-23T04:29:35.040Z,12.70
2019-04-23T04:31:54.757Z,12.60
2019-04-23T04:34:43.848Z,12.40
2019-04-23T04:44:37.715Z,12.30
2019-04-23T04:49:22.601Z,12.40
2019-04-23T04:52:14.207Z,12.40
2019-04-23T04:54:21.180Z,12.40
2019-04-23T04:56:49.805Z,12.50
2019-04-23T04:59:25.790Z,12.60
2019-04-23T05:01:58.823Z,12.70
2019-04-23T05:04:30.643Z,12.60
2019-04-23T05:07:04.071Z,12.60
2019-04-23T05:09:37.622Z,12.60
2019-04-23T05:14:48.073Z,12.50
2019-04-23T05:16:56.646Z,12.60
2019-04-23T05:22:01.025Z,13.00
2019-04-23T05:26:55.594Z,13.60
2019-04-23T05:29:27.864Z,13.50
2019-04-23T05:31:53.432Z,13.90
2019-04-23T05:34:22.670Z,14.00
2019-04-23T05:36:53.972Z,14.10
2019-04-23T05:39:29.124Z,14.20
2019-04-23T05:41:53.562Z,14.00
2019-04-23T05:44:32.672Z,14.00
2019-04-23T05:47:11.764Z,14.10
2019-04-23T05:49:24.770Z,14.10
2019-04-23T05:52:00.239Z,13.90
2019-04-23T05:54:26.596Z,13.90
2019-04-23T05:56:55.071Z,14.00
2019-04-23T05:59:37.285Z,14.10
2019-04-23T06:04:32.455Z,14.50
2019-04-23T06:09:37.558Z,14.70
2019-04-23T06:12:00.143Z,14.60
2019-04-23T06:14:32.880Z,14.50
2019-04-23T06:17:06.271Z,14.60
2019-04-23T06:19:24.692Z,14.70
2019-04-23T06:22:30.157Z,14.70
2019-04-23T06:24:39.853Z,14.40
2019-04-23T06:27:12.187Z,14.20
2019-04-23T06:32:02.730Z,14.00
2019-04-23T06:34:50.263Z,14.10
2019-04-23T06:37:06.859Z,14.10
2019-04-23T06:39:42.648Z,14.10
2019-04-23T06:42:20.736Z,14.00
2019-04-23T06:44:45.778Z,14.00
2019-04-23T06:47:17.037Z,14.00
2019-04-23T06:49:51.591Z,14.10
2019-04-23T06:52:18.402Z,14.20
2019-04-23T06:54:56.022Z,14.20
2019-04-23T06:57:17.849Z,14.20
2019-04-23T06:59:48.558Z,14.10
2019-04-23T07:02:20.104Z,14.10
2019-04-23T07:04:56.799Z,14.20
2019-04-23T07:07:36.554Z,14.30
2019-04-23T07:09:47.136Z,14.30
2019-04-23T07:12:22.131Z,14.40
2019-04-23T07:14:54.343Z,14.50
2019-04-23T07:17:13.800Z,14.50
2019-04-23T07:19:53.520Z,14.60
2019-04-23T07:24:47.347Z,14.60
2019-04-23T07:27:22.746Z,14.60
2019-04-23T07:30:03.955Z,14.70
2019-04-23T07:32:15.635Z,14.70
2019-04-23T07:34:55.666Z,14.70
2019-04-23T07:37:17.363Z,14.80
2019-04-23T07:40:19.716Z,14.70
2019-04-23T07:42:37.271Z,14.80
2019-04-23T07:48:12.407Z,15.10
2019-04-23T07:53:13.170Z,15.30
2019-04-23T07:58:23.446Z,15.50
2019-04-23T08:00:45.513Z,15.40
2019-04-23T08:05:39.719Z,15.70
2019-04-23T08:11:10.703Z,15.60
2019-04-23T08:13:25.406Z,15.60
2019-04-23T08:15:49.843Z,15.60
2019-04-23T08:18:19.865Z,15.80
2019-04-23T08:20:52.486Z,15.80
2019-04-23T08:23:26.389Z,15.90
2019-04-23T08:26:22.633Z,16.00
2019-04-23T08:28:52.187Z,16.00
2019-04-23T08:31:15.202Z,16.10
2019-04-23T08:33:51.283Z,16.00
2019-04-23T08:36:23.864Z,16.00
2019-04-23T08:38:44.295Z,16.30
2019-04-23T08:43:57.184Z,16.40
2019-04-23T08:46:52.861Z,16.50
2019-04-23T08:49:14.072Z,16.60
2019-04-23T08:54:17.466Z,16.80
2019-04-23T08:56:41.500Z,16.90
2019-04-23T09:00:00.385Z,17.00
2019-04-23T09:01:46.363Z,17.10
2019-04-23T09:04:09.582Z,17.20
2019-04-23T09:06:38.755Z,17.30
2019-04-23T09:09:16.123Z,17.20
2019-04-23T09:11:45.856Z,17.30
2019-04-23T09:14:22.883Z,17.30
2019-04-23T09:16:44.686Z,17.30
2019-04-23T09:19:16.657Z,17.30
2019-04-23T09:21:40.186Z,17.30
2019-04-23T09:24:11.683Z,17.50
2019-04-23T09:26:41.444Z,17.40
2019-04-23T09:29:14.874Z,17.30
2019-04-23T09:32:07.481Z,17.20
2019-04-23T09:34:26.559Z,17.30
2019-04-23T09:36:57.942Z,17.50
2019-04-23T09:39:34.764Z,17.50
2019-04-23T09:42:05.323Z,17.50
2019-04-23T09:44:56.839Z,17.70
2019-04-23T09:49:47.303Z,17.90
2019-04-23T09:52:20.342Z,18.00
2019-04-23T09:57:17.464Z,18.10
2019-04-23T10:02:13.162Z,18.10
2019-04-23T10:04:36.813Z,18.10
2019-04-23T10:07:07.236Z,18.20
2019-04-23T10:09:22.751Z,18.30
2019-04-23T10:11:53.289Z,18.50
2019-04-23T10:14:22.101Z,18.40
2019-04-23T10:16:53.000Z,18.30
2019-04-23T10:19:20.684Z,18.40
2019-04-23T10:21:49.296Z,18.50
2019-04-23T10:24:19.248Z,18.70
2019-04-23T10:26:48.212Z,18.50
2019-04-23T10:29:20.002Z,18.60
2019-04-23T10:31:51.370Z,18.60
2019-04-23T10:34:21.140Z,18.70
2019-04-23T10:36:51.386Z,18.80
2019-04-23T10:39:25.851Z,18.70
2019-04-23T10:41:52.266Z,18.80
2019-04-23T10:44:23.322Z,18.70
2019-04-23T10:47:38.504Z,18.50
2019-04-23T10:50:34.374Z,18.50
2019-04-23T10:53:05.145Z,18.60
2019-04-23T10:55:35.360Z,18.70
2019-04-23T10:57:54.794Z,18.60
2019-04-23T11:00:30.539Z,18.60
2019-04-23T11:02:58.883Z,18.90
2019-04-23T11:05:36.153Z,19.00
2019-04-23T11:07:47.073Z,19.20
2019-04-23T11:12:48.954Z,19.20
2019-04-23T11:17:52.021Z,19.50
2019-04-23T11:22:57.275Z,19.40
2019-04-23T11:25:38.025Z,19.30
2019-04-23T11:28:05.634Z,19.40
2019-04-23T11:30:36.146Z,19.40
2019-04-23T11:35:50.669Z,19.60
2019-04-23T11:38:34.829Z,19.40
2019-04-23T11:40:34.862Z,19.60
2019-04-23T11:43:13.172Z,19.80
2019-04-23T11:45:51.148Z,19.80
2019-04-23T11:51:20.810Z,19.80
2019-04-23T11:53:10.401Z,19.80
2019-04-23T12:00:49.261Z,19.40
2019-04-23T12:03:08.544Z,19.30
2019-04-23T12:08:47.430Z,19.40
2019-04-23T12:11:50.261Z,19.50
2019-04-23T12:13:51.545Z,19.70
2019-04-23T12:16:20.426Z,19.90
2019-04-23T12:18:59.775Z,20.00
2019-04-23T12:21:20.084Z,19.70
2019-04-23T12:23:54.474Z,19.80
2019-04-23T12:26:19.721Z,19.90
2019-04-23T12:31:15.941Z,20.10
2019-04-23T12:33:49.044Z,20.10
2019-04-23T12:36:36.924Z,19.90
2019-04-23T12:39:04.154Z,20.00
2019-04-23T12:41:36.108Z,19.90
2019-04-23T12:44:11.179Z,19.90
2019-04-23T12:46:39.967Z,19.90
2019-04-23T12:49:20.434Z,20.00
2019-04-23T12:51:45.294Z,19.80
2019-04-23T12:54:17.542Z,19.70
2019-04-23T12:56:48.649Z,19.90
2019-04-23T12:58:59.047Z,19.80
2019-04-23T13:01:42.476Z,20.00
2019-04-23T13:03:59.754Z,20.10
2019-04-23T13:06:28.083Z,20.20
2019-04-23T13:09:19.555Z,20.10
2019-04-23T13:11:34.428Z,20.10
2019-04-23T13:14:08.725Z,20.20
2019-04-23T13:19:14.382Z,20.40
2019-04-23T13:24:27.521Z,20.40
2019-04-23T13:26:56.081Z,20.50
2019-04-23T13:29:42.914Z,20.50
2019-04-23T13:31:51.970Z,20.60
2019-04-23T13:34:37.621Z,20.50
2019-04-23T13:37:16.045Z,20.50
2019-04-23T13:39:33.934Z,20.70
2019-04-23T13:41:53.971Z,20.70
2019-04-23T13:44:25.598Z,20.70
2019-04-23T13:47:00.806Z,20.80
2019-04-23T13:49:31.657Z,20.90
2019-04-23T13:51:57.959Z,20.90
2019-04-23T13:54:50.174Z,20.90
2019-04-23T13:57:37.080Z,21.10
2019-04-23T13:59:39.746Z,21.00
2019-04-23T14:02:08.194Z,21.00
2019-04-23T14:05:00.099Z,21.10
2019-04-23T14:07:23.365Z,21.10
2019-04-23T14:09:59.914Z,21.20
2019-04-23T14:12:17.769Z,21.50
2019-04-23T14:17:38.036Z,21.60
2019-04-23T14:19:53.530Z,21.60
2019-04-23T14:22:43.333Z,21.60
2019-04-23T14:25:01.151Z,21.30
2019-04-23T14:30:13.159Z,21.50
2019-04-23T14:32:22.357Z,21.50
2019-04-23T14:35:04.579Z,21.60
2019-04-23T14:37:22.109Z,21.70
2019-04-23T14:39:52.831Z,21.80
2019-04-23T14:42:33.569Z,22.10
2019-04-23T14:45:13.063Z,22.20
2019-04-23T14:47:27.946Z,22.30
2019-04-23T14:50:34.852Z,22.60
2019-04-23T14:52:38.394Z,22.60
2019-04-23T15:02:40.384Z,22.70
2019-04-23T15:05:04.059Z,22.70
2019-04-23T15:10:12.945Z,22.70
2019-04-23T15:17:34.827Z,22.40
2019-04-23T15:20:17.650Z,22.50
2019-04-23T15:23:02.742Z,22.40
2019-04-23T15:28:05.873Z,22.50
2019-04-23T15:30:09.163Z,22.50
2019-04-23T15:35:29.529Z,22.20
2019-04-23T15:50:24.603Z,22.10
2019-04-23T15:55:22.541Z,22.50
2019-04-23T16:00:22.319Z,22.60
2019-04-23T16:02:22.958Z,22.50
2019-04-23T16:04:51.385Z,22.30
2019-04-23T16:07:37.215Z,21.90
2019-04-23T16:12:53.174Z,21.70
2019-04-23T16:15:19.349Z,21.30
2019-04-23T16:17:56.297Z,21.10
2019-04-23T16:22:44.486Z,20.80
2019-04-23T16:25:17.428Z,20.70
2019-04-23T16:27:56.785Z,20.60
2019-04-23T16:35:32.918Z,20.50
2019-04-23T16:38:21.589Z,20.40
2019-04-23T16:43:08.669Z,20.10
2019-04-23T16:45:45.991Z,20.10
2019-04-23T16:48:16.728Z,20.10
2019-04-23T16:50:56.519Z,20.10
2019-04-23T16:55:38.372Z,20.10
2019-04-23T17:00:51.274Z,20.20
2019-04-23T17:05:39.602Z,20.00
2019-04-23T17:10:42.964Z,19.90
2019-04-23T17:15:48.406Z,19.90
2019-04-23T17:18:11.047Z,19.90
2019-04-23T17:20:46.788Z,19.90
2019-04-23T17:23:29.461Z,19.90
2019-04-23T17:25:41.797Z,19.90
2019-04-23T17:31:00.099Z,19.90
2019-04-23T17:36:13.212Z,19.90
2019-04-23T17:38:42.683Z,20.00
2019-04-23T17:41:33.108Z,19.90
2019-04-23T17:44:12.580Z,20.00
2019-04-23T17:46:27.379Z,19.90
2019-04-23T17:49:06.033Z,19.80
2019-04-23T17:51:28.116Z,19.70
2019-04-23T17:54:04.765Z,19.60
2019-04-23T17:56:49.439Z,19.50
2019-04-23T17:59:08.849Z,19.50
2019-04-23T18:04:10.475Z,19.30
2019-04-23T18:06:43.103Z,19.30
2019-04-23T18:11:52.574Z,19.20
2019-04-23T18:14:08.301Z,19.20
2019-04-23T18:16:41.688Z,19.20
2019-04-23T18:19:10.339Z,19.00
2019-04-23T18:24:27.359Z,19.00
2019-04-23T18:27:00.405Z,19.00
2019-04-23T18:29:40.366Z,18.90
2019-04-23T18:32:30.188Z,18.80
2019-04-23T18:37:23.738Z,18.80
2019-04-23T18:44:55.873Z,18.70
2019-04-23T18:47:37.398Z,18.70
2019-04-23T18:49:55.054Z,18.70
2019-04-23T18:52:37.364Z,18.60
2019-04-23T18:54:53.960Z,18.60
2019-04-23T18:57:33.920Z,18.50
2019-04-23T19:00:00.280Z,18.50
2019-04-23T19:05:20.910Z,18.40
2019-04-23T19:07:51.509Z,18.30
2019-04-23T19:10:26.237Z,18.40
2019-04-23T19:13:02.044Z,18.50
2019-04-23T19:15:37.089Z,18.60
2019-04-23T19:18:12.426Z,18.70
2019-04-23T19:20:49.794Z,18.70
2019-04-23T19:25:27.953Z,18.60
2019-04-23T19:28:14.308Z,18.70
2019-04-23T19:30:53.883Z,18.80
2019-04-23T19:33:35.192Z,18.70
2019-04-23T19:38:33.119Z,18.70
2019-04-23T19:40:58.244Z,18.60
2019-04-23T19:43:34.215Z,18.60
2019-04-23T19:46:05.664Z,18.50
2019-04-23T19:48:41.037Z,18.40
2019-04-23T19:56:08.947Z,18.30
2019-04-23T20:03:41.352Z,18.10
2019-04-23T20:11:02.838Z,18.10
2019-04-23T20:13:49.918Z,18.10
2019-04-23T20:16:11.007Z,18.00
2019-04-23T20:18:46.050Z,18.10
2019-04-23T20:24:00.457Z,17.90
2019-04-23T20:32:35.198Z,17.40
2019-04-23T20:34:24.487Z,17.40
2019-04-23T20:36:48.226Z,17.30
2019-04-23T20:39:17.371Z,17.30
2019-04-23T20:42:02.350Z,17.30
2019-04-23T20:44:35.047Z,17.10
2019-04-23T20:47:04.831Z,17.20
2019-04-23T20:49:31.747Z,17.10
2019-04-23T20:52:00.693Z,17.10
2019-04-23T20:54:38.835Z,17.00
2019-04-23T20:57:24.650Z,17.00
2019-04-23T20:59:53.183Z,16.90
2019-04-23T21:02:33.496Z,17.00
2019-04-23T21:05:03.253Z,17.00
2019-04-23T21:07:40.617Z,17.00
2019-04-23T21:10:08.806Z,17.00
2019-04-23T21:12:42.484Z,16.90
2019-04-23T21:15:05.129Z,17.00
2019-04-23T21:17:35.583Z,16.90
2019-04-23T21:20:08.841Z,17.00
2019-04-23T21:22:44.836Z,16.80
2019-04-23T21:25:05.720Z,16.80
2019-04-23T21:35:07.728Z,16.80
2019-04-23T21:43:08.893Z,16.70
2019-04-23T21:45:40.860Z,16.70
2019-04-23T21:48:08.338Z,16.70
2019-04-23T21:50:44.664Z,16.80
2019-04-23T21:53:06.824Z,16.80
2019-04-23T21:55:48.611Z,16.70
2019-04-23T21:58:29.687Z,16.70
2019-04-23T22:00:48.221Z,16.70
2019-04-23T22:03:18.189Z,16.70
2019-04-23T22:05:42.854Z,16.60
2019-04-23T22:10:45.621Z,16.70
2019-04-23T22:15:54.663Z,16.50
2019-04-23T22:18:09.444Z,16.50
2019-04-23T22:23:11.083Z,16.40
2019-04-23T22:25:50.142Z,16.30
2019-04-23T22:28:16.352Z,16.30
2019-04-23T22:30:54.883Z,16.30
2019-04-23T22:33:21.854Z,16.30
2019-04-23T22:35:51.438Z,16.30
2019-04-23T22:40:49.457Z,16.20
2019-04-23T22:43:31.089Z,16.40
2019-04-23T22:45:58.193Z,16.30
2019-04-23T22:48:14.921Z,16.30
2019-04-23T22:50:57.247Z,16.30
2019-04-23T22:53:10.245Z,16.20
2019-04-23T22:56:01.913Z,16.20
2019-04-23T22:58:09.643Z,16.10
2019-04-23T23:01:05.931Z,16.20
2019-04-23T23:03:29.439Z,16.10
2019-04-23T23:08:32.183Z,16.20
2019-04-23T23:10:56.908Z,16.20
2019-04-23T23:13:33.194Z,16.20
2019-04-23T23:16:01.814Z,16.20
2019-04-23T23:18:23.706Z,16.20
2019-04-23T23:20:59.641Z,16.10
2019-04-23T23:23:30.754Z,16.10
2019-04-23T23:28:35.270Z,16.00
2019-04-23T23:31:10.258Z,16.00
2019-04-23T23:33:35.936Z,15.90
2019-04-23T23:38:33.372Z,15.80
2019-04-23T23:43:34.974Z,15.80
2019-04-23T23:48:28.064Z,15.70
2019-04-23T23:53:40.635Z,15.70
2019-04-23T23:56:10.870Z,15.70
2019-04-23T23:58:53.946Z,15.80
